Time;durP1;ratioP1;P1;durP2;ratioP2;P2;SDS_P1;SDS_P2;PMS_P1;PMS_P2;Temp;Humidity;BMP_temperature;BMP_pressure;BME280_temperature;BME280_humidity;BME280_pressure;Samples;Min_cycle;Max_cycle;Signal;HPM_P1;HPM_P2
2022/06/23 00:02:24;;;;;;;12.35;5.65;;;17.30;99.90;;;;;;5017777;28;20022;-87
2022/06/23 00:04:54;;;;;;;12.15;5.57;;;17.30;99.90;;;;;;5018076;28;20033;-87
2022/06/23 00:07:28;;;;;;;12.70;6.55;;;17.30;99.90;;;;;;5017774;28;20025;-87
2022/06/23 00:09:55;;;;;;;12.25;5.90;;;17.30;99.90;;;;;;5035352;28;20036;-86
2022/06/23 00:12:35;;;;;;;13.93;5.93;;;17.20;99.90;;;;;;5017682;28;20397;-87
2022/06/23 00:15:01;;;;;;;14.50;6.30;;;17.20;99.90;;;;;;5017876;28;20060;-86
2022/06/23 00:17:36;;;;;;;11.18;6.55;;;17.20;99.90;;;;;;5017849;28;20048;-87
2022/06/23 00:20:24;;;;;;;11.93;6.47;;;17.20;99.90;;;;;;5017538;28;20029;-87
2022/06/23 00:22:53;;;;;;;12.70;5.75;;;17.20;99.90;;;;;;4987910;28;20029;-87
2022/06/23 00:25:37;;;;;;;14.65;6.22;;;17.10;99.90;;;;;;5017554;28;20021;-86
2022/06/23 00:28:03;;;;;;;14.00;6.15;;;17.10;99.90;;;;;;5017458;28;20029;-86
2022/06/23 00:30:38;;;;;;;15.38;6.25;;;17.10;99.90;;;;;;5017317;28;20552;-87
2022/06/23 00:33:14;;;;;;;10.77;5.97;;;17.10;99.90;;;;;;5017213;28;20037;-86
2022/06/23 00:35:40;;;;;;;13.68;6.32;;;17.10;99.90;;;;;;5034878;28;20442;-85
2022/06/23 00:38:16;;;;;;;13.52;6.20;;;17.00;99.90;;;;;;5017422;28;20056;-86
2022/06/23 00:40:42;;;;;;;11.57;6.55;;;17.00;99.90;;;;;;5017405;28;20021;-87
2022/06/23 00:43:10;;;;;;;17.17;6.72;;;17.00;99.90;;;;;;5017246;28;20441;-86
2022/06/23 00:45:57;;;;;;;14.40;7.25;;;17.00;99.90;;;;;;5034782;28;20096;-85
2022/06/23 00:48:44;;;;;;;11.82;5.53;;;17.00;99.90;;;;;;5017297;28;20029;-85
2022/06/23 00:51:17;;;;;;;12.93;7.25;;;16.90;99.90;;;;;;5034766;28;20428;-86
2022/06/23 00:54:13;;;;;;;14.07;7.00;;;16.90;99.90;;;;;;5034542;28;20038;-87
2022/06/23 00:56:57;;;;;;;14.18;7.00;;;16.90;99.90;;;;;;5034496;28;20024;-85
2022/06/23 00:59:38;;;;;;;13.23;6.63;;;16.80;99.90;;;;;;5034504;28;20028;-86
2022/06/23 01:02:12;;;;;;;12.52;6.88;;;16.80;99.90;;;;;;5034623;28;20037;-86
2022/06/23 01:04:43;;;;;;;18.80;8.10;;;16.70;99.90;;;;;;5016762;28;20057;-86
2022/06/23 01:07:35;;;;;;;10.07;6.80;;;16.70;99.90;;;;;;5034310;28;20032;-86
2022/06/23 01:10:16;;;;;;;13.93;7.00;;;16.70;99.90;;;;;;5034300;28;20044;-85
2022/06/23 01:12:54;;;;;;;14.30;6.17;;;16.70;99.90;;;;;;5029800;28;20033;-85
2022/06/23 01:15:44;;;;;;;14.95;7.10;;;16.60;99.90;;;;;;5034093;28;20017;-86
2022/06/23 01:18:33;;;;;;;12.18;6.30;;;16.60;99.90;;;;;;5016435;28;20132;-85
2022/06/23 01:21:05;;;;;;;13.80;6.70;;;16.60;99.90;;;;;;5033725;28;20116;-85
2022/06/23 01:23:53;;;;;;;14.60;7.88;;;16.60;99.90;;;;;;5016570;28;20021;-86
2022/06/23 01:26:27;;;;;;;12.27;6.55;;;16.50;99.90;;;;;;5033955;28;20057;-86
2022/06/23 01:29:01;;;;;;;10.25;6.07;;;16.50;99.90;;;;;;5016386;28;20101;-86
2022/06/23 01:31:49;;;;;;;12.65;7.18;;;16.50;99.90;;;;;;5016384;28;20109;-87
2022/06/23 01:34:26;;;;;;;15.48;7.88;;;16.50;99.90;;;;;;5016576;28;20069;-86
2022/06/23 01:37:24;;;;;;;13.48;7.68;;;16.40;99.90;;;;;;5033975;28;20045;-86
2022/06/23 01:40:03;;;;;;;17.55;7.55;;;16.40;99.90;;;;;;5013301;28;20036;-86
2022/06/23 01:42:40;;;;;;;11.93;6.82;;;16.30;99.90;;;;;;5016503;28;20032;-87
2022/06/23 01:45:15;;;;;;;16.63;8.27;;;16.30;99.90;;;;;;5033010;28;20434;-86
2022/06/23 01:48:08;;;;;;;11.52;6.65;;;16.30;99.90;;;;;;5033912;28;20022;-86
2022/06/23 01:50:36;;;;;;;17.27;7.78;;;16.20;99.90;;;;;;5032502;28;20506;-87
2022/06/23 01:53:11;;;;;;;16.73;7.82;;;16.20;99.90;;;;;;5032537;28;20033;-86
2022/06/23 01:56:06;;;;;;;14.32;8.02;;;16.10;99.90;;;;;;5033826;28;20022;-86
2022/06/23 01:58:47;;;;;;;13.55;7.40;;;16.10;99.90;;;;;;4994729;28;20044;-86
2022/06/23 02:01:22;;;;;;;16.58;8.15;;;16.10;99.90;;;;;;5033558;28;20112;-87
2022/06/23 02:03:56;;;;;;;12.50;8.27;;;16.00;99.90;;;;;;5016235;28;20051;-86
2022/06/23 02:06:30;;;;;;;12.68;7.68;;;16.00;99.90;;;;;;5033654;28;20021;-87
2022/06/23 02:09:36;;;;;;;15.93;8.90;;;16.00;99.90;;;;;;5033569;28;20477;-85
2022/06/23 02:12:02;;;;;;;12.35;7.68;;;16.00;99.90;;;;;;5005672;28;20049;-86
2022/06/23 02:14:46;;;;;;;14.57;7.95;;;16.00;99.90;;;;;;5015808;28;20033;-86
2022/06/23 02:17:30;;;;;;;11.93;7.97;;;15.90;99.90;;;;;;5032525;28;20048;-86
2022/06/23 02:20:02;;;;;;;15.57;8.82;;;15.90;99.90;;;;;;5032238;28;20025;-86
2022/06/23 02:22:42;;;;;;;13.73;9.07;;;15.90;99.90;;;;;;5016324;28;20049;-85
2022/06/23 02:25:27;;;;;;;12.77;7.93;;;15.90;99.90;;;;;;5017937;28;20031;-85
2022/06/23 02:28:03;;;;;;;18.02;8.90;;;15.80;99.90;;;;;;5019735;28;20076;-85
2022/06/23 02:30:31;;;;;;;15.45;9.18;;;15.80;99.90;;;;;;5019453;28;20059;-86
2022/06/23 02:33:27;;;;;;;16.13;8.63;;;15.80;99.90;;;;;;5019605;28;20061;-86
2022/06/23 02:36:18;;;;;;;11.75;7.38;;;15.80;99.90;;;;;;5019547;28;20046;-85
2022/06/23 02:38:55;;;;;;;13.07;7.70;;;15.70;99.90;;;;;;5019762;28;20049;-86
2022/06/23 02:41:27;;;;;;;13.93;8.30;;;15.70;99.90;;;;;;5019570;28;20032;-85
2022/06/23 02:44:28;;;;;;;14.93;8.60;;;15.70;99.90;;;;;;5020079;28;20042;-85
2022/06/23 02:47:30;;;;;;;14.30;8.27;;;15.70;99.90;;;;;;5000284;28;20034;-86
2022/06/23 02:50:14;;;;;;;12.50;9.00;;;15.70;99.90;;;;;;5019391;28;20040;-86
2022/06/23 02:53:24;;;;;;;12.48;8.23;;;15.60;99.90;;;;;;5035690;28;20496;-86
2022/06/23 02:56:34;;;;;;;11.07;7.80;;;15.60;99.90;;;;;;5035892;28;20065;-85
2022/06/23 02:59:14;;;;;;;15.32;8.30;;;15.60;99.90;;;;;;4973234;28;20048;-86
2022/06/23 03:01:45;;;;;;;16.83;8.30;;;15.50;99.90;;;;;;5019013;28;20048;-86
2022/06/23 03:04:44;;;;;;;11.43;7.43;;;15.50;99.90;;;;;;5019272;28;20029;-86
2022/06/23 03:07:35;;;;;;;15.43;8.57;;;15.50;99.90;;;;;;4968568;28;20040;-86
2022/06/23 03:10:09;;;;;;;17.30;7.82;;;15.40;99.90;;;;;;5018967;28;20508;-86
2022/06/23 03:12:41;;;;;;;13.40;8.20;;;15.40;99.90;;;;;;5035261;28;20034;-86
2022/06/23 03:15:28;;;;;;;14.38;8.75;;;15.40;99.90;;;;;;5019045;28;20033;-86
2022/06/23 03:18:04;;;;;;;13.65;8.00;;;15.40;99.90;;;;;;5018904;28;20498;-86
2022/06/23 03:20:47;;;;;;;13.40;8.25;;;15.40;99.90;;;;;;5018937;28;20021;-85
2022/06/23 03:23:17;;;;;;;;;;;15.30;99.90;;;;;;5019066;28;20021;-86
2022/06/23 03:25:49;;;;;;;13.63;8.45;;;15.30;99.90;;;;;;5035608;28;19905;-86
2022/06/23 03:28:23;;;;;;;13.32;9.60;;;15.30;99.90;;;;;;5018488;28;20025;-85
2022/06/23 03:30:56;;;;;;;13.05;8.85;;;15.30;99.90;;;;;;5035285;28;20029;-87
2022/06/23 03:33:35;;;;;;;14.93;9.07;;;15.40;99.90;;;;;;5018807;28;20064;-86
2022/06/23 03:36:14;;;;;;;16.75;9.63;;;15.40;99.90;;;;;;5017459;28;20068;-86
2022/06/23 03:41:39;;;;;;;13.07;8.23;;;15.40;99.90;;;;;;5036253;28;20128;-86
2022/06/23 03:44:20;;;;;;;16.70;9.35;;;15.40;99.90;;;;;;5018517;28;20028;-86
2022/06/23 03:47:03;;;;;;;15.98;9.35;;;15.40;99.90;;;;;;5036048;28;20052;-86
2022/06/23 03:49:42;;;;;;;;;;;15.40;99.90;;;;;;5036273;28;20032;-87
2022/06/23 03:52:53;;;;;;;15.57;8.40;;;15.40;99.90;;;;;;5018286;28;19912;-86
2022/06/23 03:55:28;;;;;;;18.88;9.73;;;15.40;99.90;;;;;;5027650;28;20038;-86
2022/06/23 03:57:56;;;;;;;15.98;8.50;;;15.40;99.90;;;;;;5034986;28;20029;-86
2022/06/23 04:00:31;;;;;;;15.35;9.05;;;15.40;99.90;;;;;;5035521;28;20049;-86
2022/06/23 04:03:15;;;;;;;16.02;9.55;;;15.40;99.90;;;;;;5018151;28;20026;-86
2022/06/23 04:06:18;;;;;;;14.15;8.32;;;15.40;99.90;;;;;;5017999;28;20026;-86
2022/06/23 04:08:49;;;;;;;14.90;9.38;;;15.50;99.90;;;;;;5035335;28;20018;-86
2022/06/23 04:14:05;;;;;;;18.58;9.38;;;15.50;99.90;;;;;;5035328;28;20036;-86
2022/06/23 04:16:33;;;;;;;15.20;8.77;;;15.50;99.90;;;;;;5017894;28;20071;-86
2022/06/23 04:19:14;;;;;;;14.00;9.38;;;15.50;99.90;;;;;;5017687;28;20029;-86
2022/06/23 04:21:46;;;;;;;15.48;8.98;;;15.60;99.90;;;;;;5017777;28;20381;-86
2022/06/23 04:24:23;;;;;;;13.40;8.30;;;15.60;99.90;;;;;;5017595;28;20488;-86
2022/06/23 04:26:53;;;;;;;11.85;8.88;;;15.70;99.90;;;;;;5017640;28;20446;-85
2022/06/23 04:29:28;;;;;;;11.65;8.27;;;15.70;99.90;;;;;;5034996;28;20032;-86
2022/06/23 04:32:08;;;;;;;12.88;8.48;;;15.80;99.90;;;;;;5017511;28;20048;-85
2022/06/23 04:34:42;;;;;;;13.20;8.23;;;15.80;99.90;;;;;;5017202;28;20039;-85
2022/06/23 04:37:21;;;;;;;13.27;8.00;;;15.90;99.90;;;;;;5017343;28;20041;-85
2022/06/23 04:39:53;;;;;;;13.75;8.68;;;15.90;99.90;;;;;;5017548;28;20386;-86
2022/06/23 04:42:23;;;;;;;10.38;8.30;;;15.90;99.90;;;;;;5017117;28;20021;-85
2022/06/23 04:44:55;;;;;;;15.45;8.88;;;16.00;99.90;;;;;;5017134;28;20034;-85
2022/06/23 04:47:29;;;;;;;11.45;8.10;;;16.10;99.90;;;;;;5017231;28;20036;-85
2022/06/23 04:50:12;;;;;;;9.75;7.15;;;16.10;99.90;;;;;;5017651;28;20429;-85
2022/06/23 04:52:46;;;;;;;17.70;7.93;;;16.20;99.90;;;;;;5034444;28;20021;-86
2022/06/23 04:55:27;;;;;;;11.90;6.80;;;16.30;99.90;;;;;;5034873;28;20029;-86
2022/06/23 04:57:57;;;;;;;15.40;8.25;;;16.60;99.90;;;;;;5033442;28;20116;-85
2022/06/23 05:00:40;;;;;;;10.45;6.53;;;16.90;99.90;;;;;;5034526;28;20037;-85
2022/06/23 05:03:15;;;;;;;13.98;6.72;;;17.30;99.90;;;;;;5033364;28;20040;-85
2022/06/23 05:05:41;;;;;;;9.10;5.35;;;17.60;99.90;;;;;;5034271;28;20017;-86
2022/06/23 05:08:20;;;;;;;10.23;6.25;;;18.00;99.90;;;;;;5016491;28;20025;-85
2022/06/23 05:10:54;;;;;;;8.30;5.40;;;18.30;99.90;;;;;;5034175;28;20049;-85
2022/06/23 05:13:25;;;;;;;10.38;6.00;;;18.70;99.90;;;;;;5034176;28;20041;-85
2022/06/23 05:16:13;;;;;;;7.95;4.80;;;19.00;99.90;;;;;;5033966;28;20029;-86
2022/06/23 05:18:49;;;;;;;10.13;5.30;;;19.20;99.90;;;;;;5016560;28;20025;-86
2022/06/23 05:21:17;;;;;;;7.35;5.43;;;19.50;99.90;;;;;;5016525;28;20033;-86
2022/06/23 05:23:59;;;;;;;7.13;5.05;;;19.80;99.90;;;;;;5033066;28;20049;-86
2022/06/23 05:26:45;;;;;;;8.60;4.90;;;20.10;99.90;;;;;;5033961;28;20021;-86
2022/06/23 05:29:29;;;;;;;7.55;5.20;;;20.40;99.90;;;;;;5032858;28;20033;-85
2022/06/23 05:31:59;;;;;;;10.10;4.63;;;20.70;99.90;;;;;;5034013;28;20024;-86
2022/06/23 05:34:28;;;;;;;9.93;5.30;;;20.80;99.90;;;;;;5016188;28;20428;-86
2022/06/23 05:37:37;;;;;;;8.15;4.63;;;20.90;99.90;;;;;;5033488;28;20046;-86
2022/06/23 05:40:28;;;;;;;8.32;4.95;;;21.00;99.90;;;;;;5033138;28;20044;-85
2022/06/23 05:42:58;;;;;;;6.50;4.40;;;21.10;99.90;;;;;;5016257;28;20079;-86
2022/06/23 05:45:41;;;;;;;9.30;4.75;;;21.30;99.90;;;;;;5033651;28;20508;-86
2022/06/23 05:48:13;;;;;;;6.13;4.50;;;21.50;99.90;;;;;;5016098;28;20506;-85
2022/06/23 05:50:52;;;;;;;7.60;4.32;;;21.80;99.40;;;;;;5033813;28;20044;-86
2022/06/23 05:53:28;;;;;;;9.18;4.40;;;21.90;98.50;;;;;;5033625;28;20033;-86
2022/06/23 05:56:01;;;;;;;9.25;4.50;;;21.90;97.70;;;;;;5033704;28;20438;-85
2022/06/23 05:58:55;;;;;;;7.60;5.10;;;21.80;97.00;;;;;;5033418;28;20032;-85
2022/06/23 06:01:35;;;;;;;7.30;4.75;;;21.80;96.50;;;;;;5022565;28;20044;-86
2022/06/23 06:04:06;;;;;;;8.05;5.00;;;21.70;96.00;;;;;;5040325;28;20053;-85
2022/06/23 06:06:33;;;;;;;9.02;4.72;;;21.70;95.70;;;;;;5040014;28;20064;-86
2022/06/23 06:11:51;;;;;;;7.78;4.72;;;21.60;95.30;;;;;;5040300;28;20080;-85
2022/06/23 06:14:20;;;;;;;6.50;4.28;;;21.50;95.10;;;;;;5022240;28;20037;-85
2022/06/23 06:16:46;;;;;;;10.80;4.65;;;21.60;95.10;;;;;;5022385;28;20025;-85
2022/06/23 06:19:21;;;;;;;8.63;5.07;;;21.60;94.90;;;;;;5038937;28;20052;-86
2022/06/23 06:21:51;;;;;;;7.95;4.50;;;21.60;94.60;;;;;;5022458;28;20381;-85
2022/06/23 06:24:28;;;;;;;7.53;4.22;;;21.60;94.70;;;;;;5022425;28;20025;-85
2022/06/23 06:26:55;;;;;;;9.23;4.78;;;21.50;94.50;;;;;;5022128;28;20040;-85
2022/06/23 06:29:29;;;;;;;7.50;4.30;;;21.50;94.40;;;;;;5022200;28;20430;-86
2022/06/23 06:32:19;;;;;;;6.35;3.90;;;21.50;94.60;;;;;;5022520;28;20104;-85
2022/06/23 06:34:50;;;;;;;6.65;4.03;;;21.60;94.60;;;;;;5022367;28;20083;-86
2022/06/23 06:37:16;;;;;;;7.75;3.80;;;21.70;94.80;;;;;;5022030;28;20048;-85
2022/06/23 06:39:56;;;;;;;8.27;3.63;;;21.80;94.30;;;;;;5022450;28;20025;-86
2022/06/23 06:42:25;;;;;;;10.00;4.60;;;21.90;94.10;;;;;;5022203;28;20027;-85
2022/06/23 06:44:55;;;;;;;5.57;3.70;;;21.90;93.90;;;;;;5022293;28;20063;-85
2022/06/23 06:47:24;;;;;;;7.65;4.15;;;22.00;93.90;;;;;;5021894;28;20061;-85
2022/06/23 06:49:51;;;;;;;9.38;3.63;;;22.10;93.80;;;;;;5021896;28;20028;-86
2022/06/23 06:52:17;;;;;;;6.90;3.38;;;22.20;93.70;;;;;;5039802;28;20521;-85
2022/06/23 06:55:01;;;;;;;4.65;2.97;;;22.30;93.40;;;;;;5039899;28;20113;-86
2022/06/23 06:57:35;;;;;;;7.18;3.20;;;22.50;93.30;;;;;;5039352;28;20075;-86
2022/06/23 07:00:08;;;;;;;8.38;2.65;;;22.60;92.90;;;;;;5039608;28;20029;-85
2022/06/23 07:03:00;;;;;;;6.90;3.10;;;22.70;92.60;;;;;;5021899;28;20029;-86
2022/06/23 07:05:40;;;;;;;6.50;2.22;;;22.90;92.30;;;;;;5031248;28;20545;-85
2022/06/23 07:08:15;;;;;;;3.78;1.90;;;23.00;92.10;;;;;;5021803;28;20022;-86
2022/06/23 07:11:04;;;;;;;4.25;2.50;;;23.20;91.50;;;;;;5019971;28;20064;-85
2022/06/23 07:13:30;;;;;;;4.57;2.33;;;23.30;91.40;;;;;;5018894;28;20037;-85
2022/06/23 07:16:04;;;;;;;4.82;2.05;;;23.30;90.80;;;;;;5018718;28;20366;-85
2022/06/23 07:18:38;;;;;;;5.60;1.88;;;23.40;90.50;;;;;;5018814;28;20132;-86
2022/06/23 07:21:20;;;;;;;4.00;1.73;;;23.50;90.40;;;;;;5018497;28;20017;-85
2022/06/23 07:24:05;;;;;;;4.72;2.13;;;23.60;90.30;;;;;;5021994;28;20037;-85
2022/06/23 07:26:34;;;;;;;5.05;1.95;;;23.70;90.20;;;;;;5056118;28;20021;-85
2022/06/23 07:29:43;;;;;;;3.95;1.50;;;23.80;89.70;;;;;;5056327;28;20028;-86
2022/06/23 07:32:18;;;;;;;5.45;2.40;;;24.00;90.00;;;;;;5037645;28;20099;-86
2022/06/23 07:34:51;;;;;;;6.55;2.20;;;24.00;89.40;;;;;;5038273;28;20033;-85
2022/06/23 07:37:31;;;;;;;3.80;1.67;;;24.10;88.70;;;;;;5056076;28;20041;-85
2022/06/23 07:40:07;;;;;;;2.80;1.45;;;24.20;88.20;;;;;;5056017;28;20021;-85
2022/06/23 07:42:59;;;;;;;4.03;1.85;;;24.30;88.10;;;;;;5056052;28;20070;-86
2022/06/23 07:45:36;;;;;;;11.30;2.00;;;24.40;88.00;;;;;;5038091;28;20029;-85
2022/06/23 07:48:02;;;;;;;4.15;1.70;;;24.40;87.00;;;;;;5038196;28;20025;-85
2022/06/23 07:50:28;;;;;;;5.75;1.95;;;24.50;87.40;;;;;;5037899;28;20032;-85
2022/06/23 07:52:55;;;;;;;7.93;1.70;;;24.70;86.50;;;;;;5038032;28;20040;-85
2022/06/23 07:55:24;;;;;;;4.95;1.88;;;24.80;85.90;;;;;;5037773;28;20036;-86
2022/06/23 07:57:50;;;;;;;10.48;1.90;;;24.90;85.30;;;;;;5037899;28;20017;-86
2022/06/23 08:00:17;;;;;;;6.82;1.95;;;24.90;84.70;;;;;;5037825;28;20480;-85
2022/06/23 08:02:45;;;;;;;4.00;2.10;;;25.00;84.20;;;;;;5037523;28;20021;-85
2022/06/23 08:05:41;;;;;;;4.10;2.10;;;25.00;84.80;;;;;;5055109;28;20033;-85
2022/06/23 08:08:13;;;;;;;4.75;2.72;;;25.20;84.70;;;;;;5037730;28;20107;-85
2022/06/23 08:10:39;;;;;;;5.03;2.58;;;25.30;83.80;;;;;;5055210;28;20029;-85
2022/06/23 08:13:12;;;;;;;4.85;2.67;;;25.40;83.50;;;;;;5054819;28;20041;-85
2022/06/23 08:18:46;;;;;;;7.68;3.08;;;25.60;83.30;;;;;;5055547;28;20163;-86
2022/06/23 08:21:18;;;;;;;4.57;2.20;;;25.70;83.00;;;;;;5054839;28;20473;-85
2022/06/23 08:23:52;;;;;;;6.95;2.90;;;25.80;83.50;;;;;;5022217;28;20078;-85
2022/06/23 08:26:21;;;;;;;8.82;3.45;;;25.90;82.70;;;;;;5017274;28;20025;-85
2022/06/23 08:28:49;;;;;;;6.22;2.15;;;26.00;82.10;;;;;;5017059;28;20052;-85
2022/06/23 08:31:16;;;;;;;6.28;3.00;;;26.10;82.80;;;;;;5017164;28;20033;-85
2022/06/23 08:33:41;;;;;;;6.05;3.22;;;26.20;82.30;;;;;;5033884;28;20033;-85
2022/06/23 08:36:13;;;;;;;7.80;3.42;;;26.20;81.90;;;;;;5034476;28;20068;-85
2022/06/23 08:38:55;;;;;;;9.40;2.95;;;26.40;82.40;;;;;;5034829;28;20032;-85
2022/06/23 08:41:36;;;;;;;8.02;3.53;;;26.40;81.90;;;;;;5034800;28;20028;-85
2022/06/23 08:44:10;;;;;;;5.82;3.05;;;26.50;81.80;;;;;;5016975;28;20033;-86
2022/06/23 08:46:49;;;;;;;7.50;2.92;;;26.50;81.20;;;;;;5033662;28;20025;-84
2022/06/23 08:49:32;;;;;;;8.48;3.67;;;26.50;81.40;;;;;;5034809;28;20496;-85
2022/06/23 08:52:19;;;;;;;8.77;3.53;;;26.70;81.50;;;;;;5016661;28;20033;-84
2022/06/23 08:54:49;;;;;;;8.38;2.88;;;26.80;80.60;;;;;;5034293;28;20039;-85
2022/06/23 08:57:21;;;;;;;8.43;3.27;;;26.80;80.40;;;;;;5034355;28;20048;-85
2022/06/23 09:00:08;;;;;;;8.05;3.05;;;27.00;81.50;;;;;;5016861;28;20029;-86
2022/06/23 09:02:59;;;;;;;6.13;3.17;;;27.10;81.50;;;;;;5034549;28;20052;-85
2022/06/23 09:05:54;;;;;;;5.83;2.57;;;27.30;81.00;;;;;;5034345;28;20032;-86
2022/06/23 09:08:48;;;;;;;5.82;2.85;;;27.40;80.90;;;;;;5034275;28;20026;-85
2022/06/23 09:11:55;;;;;;;7.15;3.45;;;27.50;81.00;;;;;;5016787;28;20021;-86
2022/06/23 09:14:33;;;;;;;7.13;2.85;;;27.60;80.60;;;;;;5034181;28;20044;-86
2022/06/23 09:17:12;;;;;;;7.85;3.63;;;27.60;80.10;;;;;;5034081;28;20092;-86
2022/06/23 09:19:53;;;;;;;8.73;3.58;;;27.70;79.60;;;;;;5034067;28;20030;-86
2022/06/23 09:22:50;;;;;;;7.20;3.15;;;27.70;79.50;;;;;;5016264;28;20026;-85
2022/06/23 09:25:55;;;;;;;6.60;2.92;;;27.80;79.30;;;;;;5016501;28;20037;-85
2022/06/23 09:28:48;;;;;;;5.25;2.72;;;27.90;79.60;;;;;;5016093;28;20022;-85
2022/06/23 09:31:44;;;;;;;7.40;3.53;;;27.90;79.10;;;;;;5032610;28;20033;-85
2022/06/23 09:34:36;;;;;;;9.73;4.57;;;27.90;78.90;;;;;;5015719;28;20095;-86
2022/06/23 09:37:21;;;;;;;9.48;3.15;;;28.00;78.80;;;;;;5029448;28;20061;-85
2022/06/23 09:40:02;;;;;;;5.30;3.70;;;28.10;78.50;;;;;;5014068;28;20022;-85
2022/06/23 09:43:09;;;;;;;6.07;2.85;;;28.20;77.90;;;;;;5029372;28;20030;-85
2022/06/23 09:46:03;;;;;;;5.40;2.50;;;28.20;77.60;;;;;;5012486;28;20055;-84
2022/06/23 09:48:38;;;;;;;7.70;2.78;;;28.30;78.40;;;;;;5029139;28;20631;-85
2022/06/23 09:51:17;;;;;;;6.38;2.78;;;28.40;78.40;;;;;;5029555;28;20018;-85
2022/06/23 09:54:05;;;;;;;7.38;3.75;;;28.60;78.30;;;;;;5013571;28;20038;-85
2022/06/23 09:56:58;;;;;;;5.68;2.92;;;28.70;76.80;;;;;;5014063;28;20018;-85
2022/06/23 09:59:45;;;;;;;4.40;2.78;;;28.80;76.20;;;;;;5013807;28;20014;-85
2022/06/23 10:02:46;;;;;;;9.40;4.43;;;28.80;76.40;;;;;;5013709;28;20483;-85
2022/06/23 10:05:57;;;;;;;7.72;3.15;;;28.90;75.70;;;;;;5028963;28;20026;-85
2022/06/23 10:08:34;;;;;;;9.85;2.85;;;28.90;75.20;;;;;;4975807;28;20070;-85
2022/06/23 10:11:08;;;;;;;5.85;3.17;;;29.00;75.60;;;;;;5007252;28;20030;-85
2022/06/23 10:13:46;;;;;;;9.32;3.75;;;29.20;75.30;;;;;;5028714;28;20030;-85
2022/06/23 10:16:46;;;;;;;7.00;2.90;;;29.30;74.50;;;;;;5012489;28;20056;-85
2022/06/23 10:19:39;;;;;;;8.23;2.92;;;29.30;73.90;;;;;;5012357;28;20030;-85
2022/06/23 10:22:16;;;;;;;6.22;2.63;;;29.40;74.20;;;;;;5012386;28;20048;-84
2022/06/23 10:24:52;;;;;;;6.57;2.20;;;29.50;74.70;;;;;;5012325;28;20030;-85
2022/06/23 10:27:42;;;;;;;9.40;3.17;;;29.60;74.60;;;;;;5012528;28;20026;-85
2022/06/23 10:30:17;;;;;;;6.78;3.13;;;29.70;74.20;;;;;;5012253;28;20026;-85
2022/06/23 10:33:26;;;;;;;5.93;3.70;;;29.80;73.90;;;;;;5012820;28;20026;-86
2022/06/23 10:36:27;;;;;;;8.05;3.13;;;29.80;73.40;;;;;;4981735;28;20056;-86
2022/06/23 10:39:04;;;;;;;4.43;2.83;;;29.80;73.20;;;;;;5012858;28;20030;-86
2022/06/23 10:41:54;;;;;;;8.38;2.80;;;29.90;73.20;;;;;;5012602;28;20021;-85
2022/06/23 10:44:39;;;;;;;12.50;3.45;;;30.00;73.40;;;;;;5012552;28;20486;-85
2022/06/23 10:47:31;;;;;;;6.53;2.90;;;30.10;73.10;;;;;;5016334;28;20040;-85
2022/06/23 10:50:27;;;;;;;5.90;2.47;;;30.30;73.10;;;;;;5016361;28;20065;-85
2022/06/23 10:53:28;;;;;;;10.77;2.63;;;30.40;72.50;;;;;;5016962;28;20101;-85
2022/06/23 10:56:08;;;;;;;8.13;3.08;;;30.40;72.20;;;;;;5015953;28;20037;-85
2022/06/23 10:59:06;;;;;;;7.30;2.78;;;30.50;72.80;;;;;;5015665;28;20068;-85
2022/06/23 11:02:00;;;;;;;6.97;2.03;;;30.50;73.00;;;;;;5015580;28;20197;-85
2022/06/23 11:05:12;;;;;;;6.75;2.53;;;30.70;72.50;;;;;;5015713;28;20036;-85
2022/06/23 11:08:06;;;;;;;6.35;2.03;;;30.90;71.80;;;;;;4978883;28;20033;-85
2022/06/23 11:11:10;;;;;;;10.85;2.42;;;31.10;72.10;;;;;;5015470;28;20018;-85
2022/06/23 11:13:52;;;;;;;9.57;2.25;;;31.10;71.10;;;;;;5015205;28;20037;-85
2022/06/23 11:16:50;;;;;;;4.43;1.17;;;31.10;70.30;;;;;;5015498;28;20034;-85
2022/06/23 11:19:47;;;;;;;8.15;1.33;;;31.20;69.10;;;;;;5023401;28;20025;-86
2022/06/23 11:22:47;;;;;;;6.78;1.02;;;31.00;68.70;;;;;;5031908;28;20378;-86
2022/06/23 11:25:30;;;;;;;14.23;1.10;;;30.80;68.20;;;;;;5031830;28;20096;-84
2022/06/23 11:28:28;;;;;;;11.25;1.65;;;30.70;68.90;;;;;;5031711;28;20026;-85
2022/06/23 11:31:24;;;;;;;14.10;1.45;;;30.90;69.50;;;;;;5014595;28;20041;-85
2022/06/23 11:34:24;;;;;;;5.18;1.30;;;31.30;68.70;;;;;;5031341;28;20384;-85
2022/06/23 11:36:59;;;;;;;7.57;1.20;;;31.60;68.00;;;;;;5031486;28;20041;-85
2022/06/23 11:39:53;;;;;;;6.38;1.33;;;31.80;66.50;;;;;;5015243;28;20022;-85
2022/06/23 11:42:37;;;;;;;5.88;1.10;;;31.90;66.50;;;;;;5010182;28;20495;-85
2022/06/23 11:45:14;;;;;;;6.60;1.30;;;32.00;66.50;;;;;;5031346;28;20054;-85
2022/06/23 11:48:20;;;;;;;5.97;1.17;;;32.00;66.20;;;;;;5014654;28;20030;-85
2022/06/23 11:51:15;;;;;;;3.75;1.13;;;32.10;65.60;;;;;;5031081;28;20482;-86
2022/06/23 11:54:02;;;;;;;5.22;1.10;;;32.20;65.50;;;;;;4999348;28;20052;-85
2022/06/23 11:56:58;;;;;;;6.32;1.40;;;32.20;65.00;;;;;;5015719;28;20386;-85
2022/06/23 11:59:45;;;;;;;7.38;1.38;;;32.00;65.30;;;;;;5015600;28;20057;-86
2022/06/23 12:02:11;;;;;;;6.50;1.02;;;31.80;65.90;;;;;;5031120;28;20029;-86
2022/06/23 12:04:54;;;;;;;5.57;1.30;;;31.80;65.90;;;;;;5031114;28;20026;-85
2022/06/23 12:07:35;;;;;;;4.57;1.20;;;31.80;65.80;;;;;;5015502;28;20109;-85
2022/06/23 12:10:26;;;;;;;7.57;1.70;;;31.90;65.50;;;;;;5014496;28;20540;-85
2022/06/23 12:12:56;;;;;;;10.52;1.75;;;31.90;65.40;;;;;;5015504;28;20404;-84
2022/06/23 12:15:27;;;;;;;8.10;1.40;;;31.90;65.20;;;;;;5030829;28;20033;-86
2022/06/23 12:18:02;;;;;;;3.40;0.98;;;31.90;64.80;;;;;;5033780;28;20394;-85
2022/06/23 12:20:45;;;;;;;5.68;1.35;;;32.00;65.10;;;;;;5033976;28;20478;-85
2022/06/23 12:23:23;;;;;;;8.45;1.17;;;32.00;64.30;;;;;;5034072;28;20549;-86
2022/06/23 12:26:16;;;;;;;6.95;1.50;;;32.00;64.40;;;;;;5034860;28;20026;-86
2022/06/23 12:28:46;;;;;;;7.90;1.23;;;32.00;63.80;;;;;;5033805;28;20032;-85
2022/06/23 12:31:24;;;;;;;5.38;1.38;;;32.00;64.80;;;;;;5033716;28;20028;-85
2022/06/23 12:34:01;;;;;;;4.82;1.10;;;32.00;64.00;;;;;;5034782;28;20033;-85
2022/06/23 12:36:39;;;;;;;5.38;1.00;;;32.10;63.60;;;;;;5033615;28;20049;-86
2022/06/23 12:39:13;;;;;;;5.18;1.10;;;32.20;63.30;;;;;;5033507;28;20083;-85
2022/06/23 12:41:58;;;;;;;9.45;1.23;;;32.20;62.30;;;;;;5034805;28;20060;-85
2022/06/23 12:44:39;;;;;;;6.20;0.90;;;32.30;62.30;;;;;;5033546;28;20053;-85
2022/06/23 12:47:25;;;;;;;6.00;1.00;;;32.40;61.80;;;;;;5033472;28;20030;-85
2022/06/23 12:50:00;;;;;;;3.75;0.90;;;32.50;61.00;;;;;;5033522;28;20420;-85
2022/06/23 12:52:47;;;;;;;6.43;1.10;;;32.60;61.00;;;;;;5033339;28;20114;-85
2022/06/23 12:55:31;;;;;;;4.30;1.05;;;32.70;60.50;;;;;;5033317;28;20030;-85
2022/06/23 12:58:09;;;;;;;5.78;1.30;;;32.70;60.10;;;;;;5033368;28;20030;-85
2022/06/23 13:00:37;;;;;;;6.15;1.35;;;32.80;60.90;;;;;;5033181;28;20474;-85
2022/06/23 13:03:23;;;;;;;4.95;1.25;;;32.80;60.90;;;;;;5033100;28;20022;-85
2022/06/23 13:05:59;;;;;;;6.97;1.10;;;32.90;59.90;;;;;;5032942;28;20068;-85
2022/06/23 13:08:29;;;;;;;6.55;1.33;;;33.00;60.50;;;;;;5032817;28;20504;-86
2022/06/23 13:11:13;;;;;;;7.10;1.52;;;33.00;59.30;;;;;;5032768;28;20022;-85
2022/06/23 13:13:54;;;;;;;3.80;1.08;;;33.10;58.90;;;;;;5034166;28;20485;-86
2022/06/23 13:16:31;;;;;;;8.57;1.92;;;33.10;59.10;;;;;;5022416;28;20033;-85
2022/06/23 13:19:06;;;;;;;3.63;1.08;;;33.10;59.00;;;;;;5013246;28;20022;-85
2022/06/23 13:21:34;;;;;;;4.25;0.95;;;33.10;60.10;;;;;;5013227;28;20030;-85
2022/06/23 13:24:08;;;;;;;4.90;1.35;;;33.20;59.40;;;;;;5013178;28;20076;-86
2022/06/23 13:26:46;;;;;;;5.30;1.13;;;33.20;59.00;;;;;;5013100;28;20025;-85
2022/06/23 13:29:22;;;;;;;11.48;1.50;;;33.30;59.00;;;;;;5014149;28;20040;-86
2022/06/23 13:31:59;;;;;;;5.53;1.10;;;33.40;58.80;;;;;;5014311;28;20022;-85
2022/06/23 13:34:29;;;;;;;5.60;0.98;;;33.40;59.30;;;;;;5014132;28;20033;-84
2022/06/23 13:36:58;;;;;;;8.95;1.45;;;33.50;59.10;;;;;;5031674;28;20041;-85
2022/06/23 13:39:36;;;;;;;5.32;1.42;;;33.40;58.60;;;;;;5015920;28;20030;-85
2022/06/23 13:42:17;;;;;;;8.60;1.52;;;33.40;58.00;;;;;;5033718;28;20144;-85
2022/06/23 13:45:00;;;;;;;7.50;1.40;;;33.50;57.70;;;;;;5016036;28;20120;-86
2022/06/23 13:47:36;;;;;;;8.30;1.23;;;33.60;58.00;;;;;;5033252;28;20575;-85
2022/06/23 13:50:26;;;;;;;3.95;1.17;;;33.80;57.50;;;;;;5016048;28;20482;-86
2022/06/23 13:52:59;;;;;;;4.93;1.40;;;33.80;57.00;;;;;;5016032;28;20018;-85
2022/06/23 13:55:32;;;;;;;4.13;0.98;;;34.00;56.40;;;;;;5032348;28;20500;-85
2022/06/23 13:58:26;;;;;;;3.63;1.25;;;34.10;55.20;;;;;;5015647;28;20112;-85
2022/06/23 14:01:20;;;;;;;6.07;0.93;;;34.20;55.50;;;;;;5015717;28;20022;-86
2022/06/23 14:03:55;;;;;;;4.63;0.90;;;34.40;54.50;;;;;;5015435;28;20033;-85